sensor_id;sensor_type;location;lat;lon;timestamp;P1;durP1;ratioP1;P2;durP2;ratioP2
25359;SDS011;13311;51.386;0.016;2023-02-19T00:03:05;15.95;;;3.17;;
25359;SDS011;13311;51.386;0.016;2023-02-19T00:08:06;13.20;;;3.63;;
25359;SDS011;13311;51.386;0.016;2023-02-19T00:13:07;16.88;;;3.20;;
25359;SDS011;13311;51.386;0.016;2023-02-19T00:18:08;21.23;;;4.35;;
25359;SDS011;13311;51.386;0.016;2023-02-19T00:23:08;15.15;;;3.70;;
25359;SDS011;13311;51.386;0.016;2023-02-19T00:28:09;18.13;;;4.25;;
25359;SDS011;13311;51.386;0.016;2023-02-19T00:33:10;17.08;;;4.50;;
25359;SDS011;13311;51.386;0.016;2023-02-19T00:38:10;14.68;;;4.10;;
25359;SDS011;13311;51.386;0.016;2023-02-19T00:43:11;18.33;;;4.63;;
25359;SDS011;13311;51.386;0.016;2023-02-19T00:48:12;13.07;;;3.40;;
25359;SDS011;13311;51.386;0.016;2023-02-19T00:53:12;11.77;;;3.00;;
25359;SDS011;13311;51.386;0.016;2023-02-19T00:58:13;17.48;;;4.25;;
25359;SDS011;13311;51.386;0.016;2023-02-19T01:03:14;19.25;;;3.65;;
25359;SDS011;13311;51.386;0.016;2023-02-19T01:08:14;11.75;;;3.50;;
25359;SDS011;13311;51.386;0.016;2023-02-19T01:13:15;16.42;;;4.15;;
25359;SDS011;13311;51.386;0.016;2023-02-19T01:18:16;14.05;;;4.28;;
25359;SDS011;13311;51.386;0.016;2023-02-19T01:23:17;15.52;;;4.00;;
25359;SDS011;13311;51.386;0.016;2023-02-19T01:28:18;11.50;;;3.97;;
25359;SDS011;13311;51.386;0.016;2023-02-19T01:33:19;15.50;;;4.43;;
25359;SDS011;13311;51.386;0.016;2023-02-19T01:38:19;21.17;;;4.78;;
25359;SDS011;13311;51.386;0.016;2023-02-19T01:43:20;17.83;;;3.50;;
25359;SDS011;13311;51.386;0.016;2023-02-19T01:48:31;13.52;;;3.60;;
25359;SDS011;13311;51.386;0.016;2023-02-19T01:53:37;14.07;;;3.55;;
25359;SDS011;13311;51.386;0.016;2023-02-19T01:58:41;14.77;;;4.30;;
25359;SDS011;13311;51.386;0.016;2023-02-19T02:03:43;14.40;;;3.63;;
25359;SDS011;13311;51.386;0.016;2023-02-19T02:08:50;16.92;;;3.78;;
25359;SDS011;13311;51.386;0.016;2023-02-19T02:14:14;13.93;;;3.65;;
25359;SDS011;13311;51.386;0.016;2023-02-19T02:25:19;12.38;;;4.25;;
25359;SDS011;13311;51.386;0.016;2023-02-19T02:30:58;10.93;;;3.08;;
25359;SDS011;13311;51.386;0.016;2023-02-19T02:36:14;14.93;;;4.18;;
25359;SDS011;13311;51.386;0.016;2023-02-19T02:41:20;12.73;;;3.58;;
25359;SDS011;13311;51.386;0.016;2023-02-19T02:46:22;19.38;;;3.63;;
25359;SDS011;13311;51.386;0.016;2023-02-19T02:51:30;17.00;;;3.72;;
25359;SDS011;13311;51.386;0.016;2023-02-19T02:56:41;14.13;;;3.35;;
25359;SDS011;13311;51.386;0.016;2023-02-19T03:07:10;13.38;;;3.58;;
25359;SDS011;13311;51.386;0.016;2023-02-19T03:12:13;13.43;;;3.33;;
25359;SDS011;13311;51.386;0.016;2023-02-19T03:17:46;15.15;;;3.85;;
25359;SDS011;13311;51.386;0.016;2023-02-19T03:23:09;9.65;;;3.50;;
25359;SDS011;13311;51.386;0.016;2023-02-19T03:28:12;16.63;;;4.30;;
25359;SDS011;13311;51.386;0.016;2023-02-19T03:33:20;12.10;;;2.97;;
25359;SDS011;13311;51.386;0.016;2023-02-19T03:44:17;13.55;;;4.05;;
25359;SDS011;13311;51.386;0.016;2023-02-19T03:55:29;13.20;;;2.92;;
25359;SDS011;13311;51.386;0.016;2023-02-19T04:01:10;14.43;;;3.03;;
25359;SDS011;13311;51.386;0.016;2023-02-19T04:06:26;11.75;;;2.83;;
25359;SDS011;13311;51.386;0.016;2023-02-19T04:11:29;13.02;;;3.63;;
25359;SDS011;13311;51.386;0.016;2023-02-19T04:16:32;9.15;;;2.65;;
25359;SDS011;13311;51.386;0.016;2023-02-19T04:21:36;13.57;;;2.58;;
25359;SDS011;13311;51.386;0.016;2023-02-19T04:26:39;13.38;;;3.03;;
25359;SDS011;13311;51.386;0.016;2023-02-19T04:31:41;11.00;;;3.25;;
25359;SDS011;13311;51.386;0.016;2023-02-19T04:36:42;12.35;;;3.17;;
25359;SDS011;13311;51.386;0.016;2023-02-19T04:41:43;10.27;;;3.28;;
25359;SDS011;13311;51.386;0.016;2023-02-19T04:46:44;11.55;;;2.38;;
25359;SDS011;13311;51.386;0.016;2023-02-19T04:51:45;10.20;;;2.17;;
25359;SDS011;13311;51.386;0.016;2023-02-19T04:56:46;12.00;;;2.30;;
25359;SDS011;13311;51.386;0.016;2023-02-19T05:01:46;15.02;;;2.92;;
25359;SDS011;13311;51.386;0.016;2023-02-19T05:06:47;13.77;;;2.42;;
25359;SDS011;13311;51.386;0.016;2023-02-19T05:11:48;8.20;;;2.28;;
25359;SDS011;13311;51.386;0.016;2023-02-19T05:16:48;12.02;;;2.22;;
25359;SDS011;13311;51.386;0.016;2023-02-19T05:21:49;10.63;;;2.33;;
25359;SDS011;13311;51.386;0.016;2023-02-19T05:26:50;6.20;;;2.40;;
25359;SDS011;13311;51.386;0.016;2023-02-19T05:31:50;9.15;;;1.95;;
25359;SDS011;13311;51.386;0.016;2023-02-19T05:36:51;9.32;;;2.20;;
25359;SDS011;13311;51.386;0.016;2023-02-19T05:41:52;12.60;;;3.03;;
25359;SDS011;13311;51.386;0.016;2023-02-19T05:46:52;8.45;;;2.80;;
25359;SDS011;13311;51.386;0.016;2023-02-19T05:51:53;11.50;;;2.25;;
25359;SDS011;13311;51.386;0.016;2023-02-19T05:56:54;11.80;;;2.70;;
25359;SDS011;13311;51.386;0.016;2023-02-19T06:01:54;6.28;;;1.60;;
25359;SDS011;13311;51.386;0.016;2023-02-19T06:06:57;8.32;;;2.08;;
25359;SDS011;13311;51.386;0.016;2023-02-19T06:11:57;7.60;;;2.90;;
25359;SDS011;13311;51.386;0.016;2023-02-19T06:16:58;8.55;;;2.33;;
25359;SDS011;13311;51.386;0.016;2023-02-19T06:21:59;8.73;;;1.95;;
25359;SDS011;13311;51.386;0.016;2023-02-19T06:26:59;8.10;;;2.38;;
25359;SDS011;13311;51.386;0.016;2023-02-19T06:32:00;5.03;;;1.63;;
25359;SDS011;13311;51.386;0.016;2023-02-19T06:37:01;13.30;;;2.65;;
25359;SDS011;13311;51.386;0.016;2023-02-19T06:42:02;10.65;;;2.50;;
25359;SDS011;13311;51.386;0.016;2023-02-19T06:47:03;10.57;;;2.70;;
25359;SDS011;13311;51.386;0.016;2023-02-19T06:52:04;10.32;;;2.22;;
25359;SDS011;13311;51.386;0.016;2023-02-19T06:57:05;11.10;;;2.50;;
25359;SDS011;13311;51.386;0.016;2023-02-19T07:02:05;8.93;;;2.10;;
25359;SDS011;13311;51.386;0.016;2023-02-19T07:07:10;11.32;;;2.60;;
25359;SDS011;13311;51.386;0.016;2023-02-19T07:12:11;9.23;;;2.10;;
25359;SDS011;13311;51.386;0.016;2023-02-19T07:17:12;8.73;;;2.40;;
25359;SDS011;13311;51.386;0.016;2023-02-19T07:22:12;13.93;;;2.88;;
25359;SDS011;13311;51.386;0.016;2023-02-19T07:27:13;8.55;;;1.98;;
25359;SDS011;13311;51.386;0.016;2023-02-19T07:32:14;12.80;;;2.78;;
25359;SDS011;13311;51.386;0.016;2023-02-19T07:37:14;10.90;;;2.80;;
25359;SDS011;13311;51.386;0.016;2023-02-19T07:42:15;9.73;;;2.25;;
25359;SDS011;13311;51.386;0.016;2023-02-19T07:47:16;7.32;;;1.75;;
25359;SDS011;13311;51.386;0.016;2023-02-19T07:52:16;6.15;;;1.92;;
25359;SDS011;13311;51.386;0.016;2023-02-19T07:57:17;6.18;;;2.22;;
25359;SDS011;13311;51.386;0.016;2023-02-19T08:02:18;7.38;;;1.50;;
25359;SDS011;13311;51.386;0.016;2023-02-19T08:07:38;6.35;;;1.65;;
25359;SDS011;13311;51.386;0.016;2023-02-19T08:12:39;11.18;;;2.35;;
25359;SDS011;13311;51.386;0.016;2023-02-19T08:18:07;6.22;;;1.90;;
25359;SDS011;13311;51.386;0.016;2023-02-19T08:23:09;7.85;;;2.05;;
25359;SDS011;13311;51.386;0.016;2023-02-19T08:28:10;7.65;;;1.92;;
25359;SDS011;13311;51.386;0.016;2023-02-19T08:33:15;13.00;;;2.28;;
25359;SDS011;13311;51.386;0.016;2023-02-19T08:43:20;5.60;;;2.03;;
25359;SDS011;13311;51.386;0.016;2023-02-19T08:48:21;4.97;;;1.73;;
25359;SDS011;13311;51.386;0.016;2023-02-19T08:53:22;7.00;;;1.90;;
25359;SDS011;13311;51.386;0.016;2023-02-19T08:58:24;6.38;;;2.53;;
25359;SDS011;13311;51.386;0.016;2023-02-19T09:03:25;7.45;;;1.70;;
25359;SDS011;13311;51.386;0.016;2023-02-19T09:08:26;5.88;;;2.05;;
25359;SDS011;13311;51.386;0.016;2023-02-19T09:13:26;7.07;;;1.92;;
25359;SDS011;13311;51.386;0.016;2023-02-19T09:18:27;11.50;;;2.50;;
25359;SDS011;13311;51.386;0.016;2023-02-19T09:23:28;7.63;;;2.03;;
25359;SDS011;13311;51.386;0.016;2023-02-19T09:28:29;10.27;;;2.30;;
25359;SDS011;13311;51.386;0.016;2023-02-19T09:33:29;9.70;;;2.72;;
25359;SDS011;13311;51.386;0.016;2023-02-19T09:38:30;6.53;;;1.90;;
25359;SDS011;13311;51.386;0.016;2023-02-19T09:43:31;6.72;;;1.60;;
25359;SDS011;13311;51.386;0.016;2023-02-19T09:48:32;7.03;;;1.95;;
25359;SDS011;13311;51.386;0.016;2023-02-19T09:53:36;2.78;;;1.50;;
25359;SDS011;13311;51.386;0.016;2023-02-19T09:58:54;3.28;;;1.02;;
25359;SDS011;13311;51.386;0.016;2023-02-19T10:03:57;8.60;;;1.50;;
25359;SDS011;13311;51.386;0.016;2023-02-19T10:09:12;2.22;;;1.10;;
25359;SDS011;13311;51.386;0.016;2023-02-19T10:14:30;3.58;;;1.08;;
25359;SDS011;13311;51.386;0.016;2023-02-19T10:19:38;8.13;;;1.42;;
25359;SDS011;13311;51.386;0.016;2023-02-19T10:24:40;5.38;;;1.67;;
25359;SDS011;13311;51.386;0.016;2023-02-19T10:29:42;5.20;;;1.38;;
25359;SDS011;13311;51.386;0.016;2023-02-19T10:34:46;2.58;;;1.08;;
25359;SDS011;13311;51.386;0.016;2023-02-19T10:39:47;2.75;;;1.00;;
25359;SDS011;13311;51.386;0.016;2023-02-19T10:44:51;4.03;;;1.38;;
25359;SDS011;13311;51.386;0.016;2023-02-19T10:49:58;11.43;;;1.90;;
25359;SDS011;13311;51.386;0.016;2023-02-19T10:55:45;11.73;;;1.83;;
25359;SDS011;13311;51.386;0.016;2023-02-19T11:00:33;3.42;;;1.00;;
25359;SDS011;13311;51.386;0.016;2023-02-19T11:05:34;3.33;;;1.08;;
25359;SDS011;13311;51.386;0.016;2023-02-19T11:10:40;6.72;;;1.85;;
25359;SDS011;13311;51.386;0.016;2023-02-19T11:15:41;8.63;;;1.23;;
25359;SDS011;13311;51.386;0.016;2023-02-19T11:20:47;5.13;;;1.75;;
25359;SDS011;13311;51.386;0.016;2023-02-19T11:26:00;5.72;;;1.20;;
25359;SDS011;13311;51.386;0.016;2023-02-19T11:31:24;7.88;;;1.42;;
25359;SDS011;13311;51.386;0.016;2023-02-19T11:36:32;5.22;;;1.00;;
25359;SDS011;13311;51.386;0.016;2023-02-19T12:14:59;1.10;;;0.70;;
25359;SDS011;13311;51.386;0.016;2023-02-19T12:32:04;7.55;;;1.40;;
25359;SDS011;13311;51.386;0.016;2023-02-19T12:37:12;6.03;;;1.80;;
25359;SDS011;13311;51.386;0.016;2023-02-19T12:42:39;3.80;;;0.73;;
25359;SDS011;13311;51.386;0.016;2023-02-19T12:48:04;4.70;;;1.75;;
25359;SDS011;13311;51.386;0.016;2023-02-19T12:53:33;4.90;;;1.60;;
25359;SDS011;13311;51.386;0.016;2023-02-19T13:09:14;9.98;;;1.67;;
25359;SDS011;13311;51.386;0.016;2023-02-19T13:14:38;3.85;;;1.10;;
25359;SDS011;13311;51.386;0.016;2023-02-19T13:19:44;2.10;;;1.05;;
25359;SDS011;13311;51.386;0.016;2023-02-19T13:24:47;3.92;;;1.38;;
25359;SDS011;13311;51.386;0.016;2023-02-19T13:40:56;3.53;;;1.05;;
25359;SDS011;13311;51.386;0.016;2023-02-19T13:45:59;3.67;;;1.15;;
25359;SDS011;13311;51.386;0.016;2023-02-19T14:17:38;4.63;;;1.38;;
25359;SDS011;13311;51.386;0.016;2023-02-19T14:27:52;7.90;;;1.83;;
25359;SDS011;13311;51.386;0.016;2023-02-19T14:33:00;2.72;;;1.13;;
25359;SDS011;13311;51.386;0.016;2023-02-19T14:38:02;7.45;;;1.50;;
25359;SDS011;13311;51.386;0.016;2023-02-19T14:43:04;4.18;;;1.55;;
25359;SDS011;13311;51.386;0.016;2023-02-19T14:48:12;5.00;;;1.60;;
25359;SDS011;13311;51.386;0.016;2023-02-19T14:53:38;7.03;;;2.25;;
25359;SDS011;13311;51.386;0.016;2023-02-19T14:58:42;8.18;;;2.42;;
25359;SDS011;13311;51.386;0.016;2023-02-19T15:03:47;2.40;;;1.17;;
25359;SDS011;13311;51.386;0.016;2023-02-19T15:08:50;3.65;;;1.08;;
25359;SDS011;13311;51.386;0.016;2023-02-19T15:13:59;8.13;;;1.67;;
25359;SDS011;13311;51.386;0.016;2023-02-19T15:19:06;6.43;;;2.20;;
25359;SDS011;13311;51.386;0.016;2023-02-19T15:24:09;4.47;;;1.52;;
25359;SDS011;13311;51.386;0.016;2023-02-19T15:29:14;6.13;;;1.70;;
25359;SDS011;13311;51.386;0.016;2023-02-19T15:34:21;8.95;;;2.35;;
25359;SDS011;13311;51.386;0.016;2023-02-19T15:39:23;8.35;;;1.80;;
25359;SDS011;13311;51.386;0.016;2023-02-19T15:44:48;6.40;;;1.75;;
25359;SDS011;13311;51.386;0.016;2023-02-19T15:50:11;6.28;;;2.22;;
25359;SDS011;13311;51.386;0.016;2023-02-19T15:55:27;5.72;;;1.80;;
25359;SDS011;13311;51.386;0.016;2023-02-19T16:05:45;5.60;;;2.03;;
25359;SDS011;13311;51.386;0.016;2023-02-19T16:16:30;4.82;;;1.90;;
25359;SDS011;13311;51.386;0.016;2023-02-19T16:21:37;8.27;;;2.50;;
25359;SDS011;13311;51.386;0.016;2023-02-19T16:26:43;6.10;;;2.67;;
25359;SDS011;13311;51.386;0.016;2023-02-19T16:31:51;11.68;;;3.22;;
25359;SDS011;13311;51.386;0.016;2023-02-19T16:36:55;9.68;;;2.35;;
25359;SDS011;13311;51.386;0.016;2023-02-19T16:47:17;6.22;;;2.03;;
25359;SDS011;13311;51.386;0.016;2023-02-19T16:52:50;5.10;;;1.77;;
25359;SDS011;13311;51.386;0.016;2023-02-19T16:57:59;4.93;;;1.80;;
25359;SDS011;13311;51.386;0.016;2023-02-19T17:03:01;10.75;;;3.03;;
25359;SDS011;13311;51.386;0.016;2023-02-19T17:08:16;5.80;;;2.37;;
25359;SDS011;13311;51.386;0.016;2023-02-19T17:13:42;10.45;;;3.70;;
25359;SDS011;13311;51.386;0.016;2023-02-19T17:18:47;11.60;;;4.35;;
25359;SDS011;13311;51.386;0.016;2023-02-19T17:23:48;12.55;;;2.63;;
25359;SDS011;13311;51.386;0.016;2023-02-19T17:28:50;8.25;;;2.97;;
25359;SDS011;13311;51.386;0.016;2023-02-19T17:33:51;8.10;;;2.17;;
25359;SDS011;13311;51.386;0.016;2023-02-19T17:38:52;13.23;;;2.60;;
25359;SDS011;13311;51.386;0.016;2023-02-19T17:43:53;7.10;;;2.10;;
25359;SDS011;13311;51.386;0.016;2023-02-19T17:48:54;12.63;;;3.78;;
25359;SDS011;13311;51.386;0.016;2023-02-19T17:53:55;12.13;;;3.80;;
25359;SDS011;13311;51.386;0.016;2023-02-19T17:58:56;6.38;;;2.70;;
25359;SDS011;13311;51.386;0.016;2023-02-19T18:03:57;8.30;;;4.70;;
25359;SDS011;13311;51.386;0.016;2023-02-19T18:08:58;13.20;;;6.20;;
25359;SDS011;13311;51.386;0.016;2023-02-19T18:13:58;18.67;;;6.97;;
25359;SDS011;13311;51.386;0.016;2023-02-19T18:18:59;60.38;;;27.52;;
25359;SDS011;13311;51.386;0.016;2023-02-19T18:24:01;83.72;;;46.90;;
25359;SDS011;13311;51.386;0.016;2023-02-19T18:29:02;16.30;;;7.38;;
25359;SDS011;13311;51.386;0.016;2023-02-19T18:34:04;11.55;;;5.68;;
25359;SDS011;13311;51.386;0.016;2023-02-19T18:39:05;14.55;;;5.25;;
25359;SDS011;13311;51.386;0.016;2023-02-19T18:44:06;14.30;;;5.65;;
25359;SDS011;13311;51.386;0.016;2023-02-19T18:49:06;16.27;;;5.38;;
25359;SDS011;13311;51.386;0.016;2023-02-19T18:54:07;10.95;;;4.80;;
25359;SDS011;13311;51.386;0.016;2023-02-19T18:59:08;14.82;;;5.20;;
25359;SDS011;13311;51.386;0.016;2023-02-19T19:04:09;11.57;;;5.25;;
25359;SDS011;13311;51.386;0.016;2023-02-19T19:09:10;9.00;;;4.20;;
25359;SDS011;13311;51.386;0.016;2023-02-19T19:14:11;14.70;;;5.72;;
25359;SDS011;13311;51.386;0.016;2023-02-19T19:19:12;12.98;;;5.32;;
25359;SDS011;13311;51.386;0.016;2023-02-19T19:24:13;18.02;;;5.60;;
25359;SDS011;13311;51.386;0.016;2023-02-19T19:29:15;13.23;;;4.70;;
25359;SDS011;13311;51.386;0.016;2023-02-19T19:34:18;16.83;;;6.50;;
25359;SDS011;13311;51.386;0.016;2023-02-19T19:39:19;15.88;;;6.25;;
25359;SDS011;13311;51.386;0.016;2023-02-19T19:44:20;14.43;;;5.65;;
25359;SDS011;13311;51.386;0.016;2023-02-19T19:49:21;20.45;;;6.13;;
25359;SDS011;13311;51.386;0.016;2023-02-19T19:54:22;21.55;;;7.65;;
25359;SDS011;13311;51.386;0.016;2023-02-19T19:59:23;17.48;;;6.28;;
25359;SDS011;13311;51.386;0.016;2023-02-19T20:04:24;12.98;;;6.05;;
25359;SDS011;13311;51.386;0.016;2023-02-19T20:09:25;15.38;;;6.20;;
25359;SDS011;13311;51.386;0.016;2023-02-19T20:14:27;22.83;;;6.57;;
25359;SDS011;13311;51.386;0.016;2023-02-19T20:19:28;13.85;;;6.47;;
25359;SDS011;13311;51.386;0.016;2023-02-19T20:24:29;15.60;;;6.57;;
25359;SDS011;13311;51.386;0.016;2023-02-19T20:29:31;12.48;;;6.28;;
25359;SDS011;13311;51.386;0.016;2023-02-19T20:34:33;18.50;;;6.78;;
25359;SDS011;13311;51.386;0.016;2023-02-19T20:39:34;18.52;;;6.80;;
25359;SDS011;13311;51.386;0.016;2023-02-19T20:44:34;17.02;;;6.30;;
25359;SDS011;13311;51.386;0.016;2023-02-19T20:49:35;11.65;;;5.38;;
25359;SDS011;13311;51.386;0.016;2023-02-19T20:54:36;12.68;;;5.55;;
25359;SDS011;13311;51.386;0.016;2023-02-19T20:59:37;17.95;;;4.90;;
25359;SDS011;13311;51.386;0.016;2023-02-19T21:04:39;23.83;;;5.63;;
25359;SDS011;13311;51.386;0.016;2023-02-19T21:09:40;10.20;;;4.50;;
25359;SDS011;13311;51.386;0.016;2023-02-19T21:14:41;11.18;;;5.18;;
25359;SDS011;13311;51.386;0.016;2023-02-19T21:19:41;15.20;;;5.07;;
25359;SDS011;13311;51.386;0.016;2023-02-19T21:24:42;17.58;;;4.35;;
25359;SDS011;13311;51.386;0.016;2023-02-19T21:29:44;11.57;;;4.00;;
25359;SDS011;13311;51.386;0.016;2023-02-19T21:34:45;16.00;;;3.92;;
25359;SDS011;13311;51.386;0.016;2023-02-19T21:39:46;7.72;;;3.35;;
25359;SDS011;13311;51.386;0.016;2023-02-19T21:44:47;8.50;;;3.30;;
25359;SDS011;13311;51.386;0.016;2023-02-19T21:49:47;16.33;;;4.07;;
25359;SDS011;13311;51.386;0.016;2023-02-19T21:54:48;9.18;;;3.47;;
25359;SDS011;13311;51.386;0.016;2023-02-19T21:59:49;8.82;;;3.47;;
25359;SDS011;13311;51.386;0.016;2023-02-19T22:04:50;10.25;;;3.60;;
25359;SDS011;13311;51.386;0.016;2023-02-19T22:09:55;12.80;;;3.40;;
25359;SDS011;13311;51.386;0.016;2023-02-19T22:14:55;11.50;;;3.53;;
25359;SDS011;13311;51.386;0.016;2023-02-19T22:19:56;10.93;;;3.22;;
25359;SDS011;13311;51.386;0.016;2023-02-19T22:24:57;4.10;;;2.55;;
25359;SDS011;13311;51.386;0.016;2023-02-19T22:29:57;6.40;;;3.20;;
25359;SDS011;13311;51.386;0.016;2023-02-19T22:34:58;5.57;;;2.65;;
25359;SDS011;13311;51.386;0.016;2023-02-19T22:39:59;10.02;;;4.05;;
25359;SDS011;13311;51.386;0.016;2023-02-19T22:44:59;9.82;;;3.60;;
25359;SDS011;13311;51.386;0.016;2023-02-19T22:50:00;13.10;;;4.05;;
25359;SDS011;13311;51.386;0.016;2023-02-19T22:55:01;5.45;;;3.08;;
25359;SDS011;13311;51.386;0.016;2023-02-19T23:00:05;5.38;;;2.80;;
25359;SDS011;13311;51.386;0.016;2023-02-19T23:05:07;7.97;;;3.13;;
25359;SDS011;13311;51.386;0.016;2023-02-19T23:10:08;9.57;;;3.78;;
25359;SDS011;13311;51.386;0.016;2023-02-19T23:15:10;11.30;;;3.47;;
25359;SDS011;13311;51.386;0.016;2023-02-19T23:20:12;6.95;;;3.05;;
25359;SDS011;13311;51.386;0.016;2023-02-19T23:25:13;7.90;;;3.10;;
25359;SDS011;13311;51.386;0.016;2023-02-19T23:30:14;7.30;;;3.03;;
25359;SDS011;13311;51.386;0.016;2023-02-19T23:35:16;9.38;;;3.35;;
25359;SDS011;13311;51.386;0.016;2023-02-19T23:40:16;7.10;;;2.70;;
25359;SDS011;13311;51.386;0.016;2023-02-19T23:45:18;8.00;;;2.97;;
25359;SDS011;13311;51.386;0.016;2023-02-19T23:50:18;7.45;;;3.00;;
25359;SDS011;13311;51.386;0.016;2023-02-19T23:55:19;5.75;;;2.33;;
